createdAt,value
2023-05-14T00:00:18.021Z,4.18
2023-05-14T00:01:27.956Z,2.75
2023-05-14T00:02:38.237Z,3.75
2023-05-14T00:03:48.142Z,2.90
2023-05-14T00:04:58.033Z,3.78
2023-05-14T00:06:11.520Z,3.10
2023-05-14T00:07:21.336Z,2.30
2023-05-14T00:08:31.243Z,1.80
2023-05-14T00:09:41.219Z,3.20
2023-05-14T00:10:51.151Z,4.75
2023-05-14T00:12:01.201Z,8.25
2023-05-14T00:13:11.269Z,3.78
2023-05-14T00:14:21.200Z,3.33
2023-05-14T00:15:34.218Z,2.47
2023-05-14T00:16:44.408Z,2.97
2023-05-14T00:17:54.440Z,1.88
2023-05-14T00:19:04.484Z,3.50
2023-05-14T00:20:15.425Z,3.55
2023-05-14T00:21:25.241Z,4.18
2023-05-14T00:22:35.893Z,2.22
2023-05-14T00:23:45.943Z,3.13
2023-05-14T00:24:55.954Z,2.47
2023-05-14T00:26:06.561Z,1.90
2023-05-14T00:27:16.424Z,1.98
2023-05-14T00:28:27.034Z,2.28
2023-05-14T00:29:38.382Z,4.03
2023-05-14T00:30:48.171Z,1.70
2023-05-14T00:31:57.861Z,1.98
2023-05-14T00:33:07.988Z,2.42
2023-05-14T00:34:18.061Z,2.20
2023-05-14T00:35:29.376Z,1.35
2023-05-14T00:36:39.532Z,3.45
2023-05-14T00:37:49.694Z,2.38
2023-05-14T00:38:59.819Z,1.60
2023-05-14T00:40:10.050Z,1.63
2023-05-14T00:41:23.429Z,3.80
2023-05-14T00:42:33.358Z,1.50
2023-05-14T00:43:43.192Z,1.50
2023-05-14T00:44:53.132Z,2.25
2023-05-14T00:46:03.053Z,2.90
2023-05-14T00:47:13.541Z,2.80
2023-05-14T00:48:23.768Z,3.47
2023-05-14T00:49:34.471Z,3.90
2023-05-14T00:50:44.453Z,1.92
2023-05-14T00:51:54.405Z,3.58
2023-05-14T00:53:04.720Z,1.27
2023-05-14T00:54:16.898Z,2.00
2023-05-14T00:55:30.057Z,2.58
2023-05-14T00:56:40.533Z,2.00
2023-05-14T00:57:50.925Z,1.27
2023-05-14T00:59:04.669Z,1.30
2023-05-14T01:00:14.823Z,2.33
2023-05-14T01:01:24.805Z,2.65
2023-05-14T01:02:35.220Z,4.13
2023-05-14T01:03:44.978Z,2.38
2023-05-14T01:04:55.509Z,1.85
2023-05-14T01:06:06.178Z,3.70
2023-05-14T01:07:34.851Z,3.00
2023-05-14T01:09:05.684Z,3.75
2023-05-14T01:10:42.182Z,2.38
2023-05-14T01:12:15.259Z,2.38
2023-05-14T01:13:50.856Z,3.28
2023-05-14T01:15:03.945Z,4.20
2023-05-14T01:16:19.921Z,1.95
2023-05-14T01:17:33.059Z,1.50
2023-05-14T01:18:54.430Z,1.73
2023-05-14T01:20:06.895Z,1.50
2023-05-14T01:21:35.503Z,3.00
2023-05-14T01:22:45.204Z,3.55
2023-05-14T01:23:55.153Z,1.63
2023-05-14T01:25:06.238Z,2.13
2023-05-14T01:26:16.290Z,2.33
2023-05-14T01:27:55.553Z,2.40
2023-05-14T01:29:24.996Z,1.58
2023-05-14T01:30:40.169Z,2.70
2023-05-14T01:31:51.150Z,2.25
2023-05-14T01:33:11.187Z,2.58
2023-05-14T01:34:24.099Z,3.20
2023-05-14T01:35:34.761Z,2.63
2023-05-14T01:36:44.641Z,2.78
2023-05-14T01:38:02.111Z,3.35
2023-05-14T01:39:15.132Z,6.10
2023-05-14T01:40:25.630Z,2.22
2023-05-14T01:41:36.438Z,2.13
2023-05-14T01:42:47.653Z,2.85
2023-05-14T01:43:57.861Z,3.63
2023-05-14T01:45:08.132Z,1.95
2023-05-14T01:46:21.753Z,4.00
2023-05-14T01:47:31.855Z,2.92
2023-05-14T01:48:42.022Z,1.38
2023-05-14T01:49:54.335Z,2.70
2023-05-14T01:51:04.528Z,2.05
2023-05-14T01:52:14.416Z,4.53
2023-05-14T01:53:24.427Z,3.03
2023-05-14T01:54:34.307Z,2.35
2023-05-14T01:55:44.117Z,1.70
2023-05-14T01:56:55.033Z,2.67
2023-05-14T01:58:04.677Z,1.40
2023-05-14T01:59:14.568Z,3.30
2023-05-14T02:00:25.003Z,1.85
2023-05-14T02:01:37.132Z,1.63
2023-05-14T02:02:48.481Z,1.35
2023-05-14T02:03:58.083Z,4.95
2023-05-14T02:05:08.297Z,2.85
2023-05-14T02:06:18.325Z,5.22
2023-05-14T02:07:28.216Z,1.83
2023-05-14T02:08:38.025Z,2.35
2023-05-14T02:09:48.003Z,1.30
2023-05-14T02:10:57.933Z,1.30
2023-05-14T02:12:08.459Z,3.00
2023-05-14T02:13:18.401Z,0.80
2023-05-14T02:14:28.446Z,1.73
2023-05-14T02:15:40.792Z,2.30
2023-05-14T02:16:50.714Z,1.65
2023-05-14T02:18:00.692Z,3.35
2023-05-14T02:19:10.608Z,2.97
2023-05-14T02:20:20.538Z,2.92
2023-05-14T02:21:31.616Z,2.70
2023-05-14T02:22:41.505Z,1.20
2023-05-14T02:23:52.745Z,2.40
2023-05-14T02:25:02.542Z,1.70
2023-05-14T02:26:12.238Z,3.95
2023-05-14T02:27:22.077Z,2.85
2023-05-14T02:28:31.805Z,3.10
2023-05-14T02:29:41.837Z,1.40
2023-05-14T02:30:51.742Z,1.27
2023-05-14T02:32:05.566Z,2.30
2023-05-14T02:33:16.659Z,1.70
2023-05-14T02:34:26.720Z,1.50
2023-05-14T02:35:36.608Z,2.25
2023-05-14T02:36:46.517Z,2.10
2023-05-14T02:37:56.459Z,3.70
2023-05-14T02:39:06.322Z,1.65
2023-05-14T02:40:16.086Z,2.40
2023-05-14T02:41:26.010Z,1.50
2023-05-14T02:42:36.505Z,4.72
2023-05-14T02:43:46.905Z,1.05
2023-05-14T02:44:56.800Z,1.65
2023-05-14T02:46:06.909Z,2.53
2023-05-14T02:47:17.022Z,1.40
2023-05-14T02:48:26.973Z,1.65
2023-05-14T02:49:36.880Z,4.20
2023-05-14T02:50:49.444Z,2.40
2023-05-14T02:51:59.461Z,2.47
2023-05-14T02:53:09.407Z,2.33
2023-05-14T02:54:19.332Z,3.08
2023-05-14T02:55:29.603Z,2.10
2023-05-14T02:56:40.382Z,3.95
2023-05-14T02:57:50.285Z,1.90
2023-05-14T02:59:01.378Z,1.58
2023-05-14T03:00:11.733Z,2.17
2023-05-14T03:01:22.077Z,2.30
2023-05-14T03:02:32.480Z,6.72
2023-05-14T03:03:42.871Z,2.67
2023-05-14T03:04:54.422Z,3.10
2023-05-14T03:06:05.047Z,3.00
2023-05-14T03:07:14.962Z,3.25
2023-05-14T03:08:24.552Z,2.88
2023-05-14T03:09:35.993Z,2.50
2023-05-14T03:10:47.178Z,2.45
2023-05-14T03:11:57.111Z,4.50
2023-05-14T03:13:07.242Z,2.17
2023-05-14T03:14:18.308Z,2.72
2023-05-14T03:15:28.223Z,1.60
2023-05-14T03:16:38.023Z,1.60
2023-05-14T03:17:47.940Z,1.73
2023-05-14T03:18:58.744Z,3.60
2023-05-14T03:20:08.992Z,4.30
2023-05-14T03:21:18.937Z,3.08
2023-05-14T03:22:28.947Z,3.00
2023-05-14T03:23:38.998Z,4.38
2023-05-14T03:24:49.001Z,2.05
2023-05-14T03:25:59.019Z,1.30
2023-05-14T03:27:08.932Z,2.15
2023-05-14T03:28:18.910Z,5.70
2023-05-14T03:29:29.042Z,2.58
2023-05-14T03:30:39.095Z,2.22
2023-05-14T03:31:49.108Z,2.03
2023-05-14T03:32:59.169Z,2.83
2023-05-14T03:34:08.994Z,1.55
2023-05-14T03:35:18.786Z,1.38
2023-05-14T03:36:28.670Z,1.60
2023-05-14T03:37:38.588Z,1.85
2023-05-14T03:38:48.424Z,3.05
2023-05-14T03:39:58.309Z,2.17
2023-05-14T03:41:08.473Z,1.60
2023-05-14T03:42:18.460Z,1.50
2023-05-14T03:43:28.423Z,1.60
2023-05-14T03:44:38.338Z,1.60
2023-05-14T03:45:48.242Z,2.63
2023-05-14T03:46:57.979Z,0.93
2023-05-14T03:48:07.943Z,1.40
2023-05-14T03:49:26.844Z,1.10
2023-05-14T03:50:36.581Z,1.17
2023-05-14T03:51:46.402Z,0.98
2023-05-14T03:52:57.329Z,1.45
2023-05-14T03:54:09.655Z,1.38
2023-05-14T03:55:19.695Z,3.40
2023-05-14T03:56:29.540Z,2.95
2023-05-14T03:57:40.206Z,2.20
2023-05-14T03:58:50.179Z,3.00
2023-05-14T04:00:00.054Z,1.73
2023-05-14T04:01:10.093Z,2.13
2023-05-14T04:02:20.220Z,1.20
2023-05-14T04:03:31.448Z,1.00
2023-05-14T04:04:41.694Z,1.50
2023-05-14T04:05:52.725Z,1.20
2023-05-14T04:07:02.367Z,1.90
2023-05-14T04:08:12.328Z,2.90
2023-05-14T04:09:22.171Z,3.08
2023-05-14T04:10:32.031Z,2.15
2023-05-14T04:11:41.884Z,1.25
2023-05-14T04:12:51.837Z,2.50
2023-05-14T04:14:05.626Z,2.47
2023-05-14T04:15:15.422Z,2.33
2023-05-14T04:16:25.449Z,1.95
2023-05-14T04:17:36.602Z,1.70
2023-05-14T04:18:46.537Z,2.25
2023-05-14T04:19:56.495Z,3.22
2023-05-14T04:21:06.562Z,1.88
2023-05-14T04:22:16.440Z,1.13
2023-05-14T04:23:26.395Z,1.83
2023-05-14T04:24:36.231Z,1.17
2023-05-14T04:25:47.190Z,2.10
2023-05-14T04:26:58.354Z,1.77
2023-05-14T04:28:08.257Z,3.63
2023-05-14T04:29:18.270Z,2.22
2023-05-14T04:30:31.084Z,1.88
2023-05-14T04:31:40.856Z,1.88
2023-05-14T04:32:50.755Z,4.50
2023-05-14T04:34:00.594Z,3.10
2023-05-14T04:35:10.712Z,2.17
2023-05-14T04:36:20.752Z,2.97
2023-05-14T04:37:31.002Z,1.17
2023-05-14T04:38:40.776Z,1.55
2023-05-14T04:39:50.446Z,2.13
2023-05-14T04:41:00.793Z,1.48
2023-05-14T04:42:10.669Z,2.53
2023-05-14T04:43:20.476Z,0.88
2023-05-14T04:44:30.406Z,4.28
2023-05-14T04:45:40.357Z,2.70
2023-05-14T04:46:51.057Z,3.95
2023-05-14T04:48:01.099Z,3.63
2023-05-14T04:49:12.143Z,1.60
2023-05-14T04:50:23.202Z,4.53
2023-05-14T04:51:33.558Z,1.02
2023-05-14T04:52:43.521Z,1.67
2023-05-14T04:53:53.316Z,1.00
2023-05-14T04:55:03.172Z,3.08
2023-05-14T04:56:13.084Z,1.25
2023-05-14T04:57:23.330Z,1.17
2023-05-14T04:58:35.110Z,1.73
2023-05-14T04:59:45.287Z,1.80
2023-05-14T05:00:55.303Z,2.17
2023-05-14T05:02:05.299Z,2.20
2023-05-14T05:03:15.544Z,2.13
2023-05-14T05:04:25.506Z,1.10
2023-05-14T05:05:35.347Z,1.40
2023-05-14T05:06:45.216Z,1.40
2023-05-14T05:07:55.073Z,3.80
2023-05-14T05:09:05.271Z,1.92
2023-05-14T05:10:16.163Z,1.20
2023-05-14T05:11:26.018Z,3.03
2023-05-14T05:12:35.900Z,2.65
2023-05-14T05:13:45.769Z,2.00
2023-05-14T05:14:56.635Z,1.00
2023-05-14T05:16:06.967Z,1.67
2023-05-14T05:17:16.985Z,1.30
2023-05-14T05:18:27.810Z,1.15
2023-05-14T05:19:43.581Z,1.92
2023-05-14T05:20:54.416Z,1.45
2023-05-14T05:22:04.460Z,1.17
2023-05-14T05:23:14.395Z,3.60
2023-05-14T05:24:24.334Z,5.60
2023-05-14T05:25:34.288Z,0.98
2023-05-14T05:26:44.133Z,2.38
2023-05-14T05:27:54.016Z,3.25
2023-05-14T05:29:04.163Z,2.50
2023-05-14T05:30:14.198Z,2.10
2023-05-14T05:31:24.283Z,2.30
2023-05-14T05:32:34.339Z,1.08
2023-05-14T05:33:44.511Z,1.85
2023-05-14T05:34:54.340Z,2.60
2023-05-14T05:36:04.622Z,1.00
2023-05-14T05:37:14.587Z,1.80
2023-05-14T05:38:24.394Z,1.85
2023-05-14T05:39:34.370Z,1.58
2023-05-14T05:40:44.489Z,1.63
2023-05-14T05:41:54.372Z,2.40
2023-05-14T05:43:04.651Z,1.13
2023-05-14T05:44:14.589Z,3.00
2023-05-14T05:45:24.631Z,1.85
2023-05-14T05:46:34.529Z,2.80
2023-05-14T05:47:44.469Z,3.55
2023-05-14T05:48:54.357Z,4.97
2023-05-14T05:50:04.426Z,1.05
2023-05-14T05:51:14.418Z,3.15
2023-05-14T05:52:24.338Z,1.90
2023-05-14T05:53:34.172Z,1.17
2023-05-14T05:54:44.085Z,3.70
2023-05-14T05:55:54.061Z,1.90
2023-05-14T05:57:04.330Z,1.42
2023-05-14T05:58:14.294Z,3.25
2023-05-14T05:59:27.010Z,2.25
2023-05-14T06:00:36.978Z,3.78
2023-05-14T06:01:46.996Z,1.77
2023-05-14T06:02:57.004Z,1.45
2023-05-14T06:04:06.996Z,2.30
2023-05-14T06:05:16.998Z,2.40
2023-05-14T06:06:28.384Z,2.05
2023-05-14T06:07:38.486Z,3.10
2023-05-14T06:08:48.356Z,2.42
2023-05-14T06:09:58.297Z,2.25
2023-05-14T06:11:08.326Z,1.83
2023-05-14T06:12:18.342Z,2.25
2023-05-14T06:13:28.260Z,4.07
2023-05-14T06:14:38.240Z,3.10
2023-05-14T06:15:48.168Z,1.98
2023-05-14T06:16:58.149Z,1.65
2023-05-14T06:18:08.148Z,1.75
2023-05-14T06:19:18.480Z,2.85
2023-05-14T06:20:28.413Z,2.58
2023-05-14T06:21:39.389Z,2.10
2023-05-14T06:22:49.278Z,1.55
2023-05-14T06:24:01.397Z,4.28
2023-05-14T06:25:11.380Z,7.00
2023-05-14T06:26:21.214Z,1.75
2023-05-14T06:27:31.070Z,4.32
2023-05-14T06:28:40.981Z,3.95
2023-05-14T06:29:50.957Z,5.07
2023-05-14T06:31:00.890Z,4.25
2023-05-14T06:32:10.877Z,4.35
2023-05-14T06:33:20.859Z,4.35
2023-05-14T06:34:31.238Z,6.32
2023-05-14T06:35:40.938Z,4.38
2023-05-14T06:36:50.854Z,2.90
2023-05-14T06:38:00.767Z,3.70
2023-05-14T06:39:10.727Z,3.42
2023-05-14T06:40:20.792Z,4.65
2023-05-14T06:41:30.879Z,3.78
2023-05-14T06:42:40.639Z,3.60
2023-05-14T06:43:50.545Z,4.00
2023-05-14T06:45:00.465Z,4.68
2023-05-14T06:46:10.387Z,3.75
2023-05-14T06:47:20.827Z,5.32
2023-05-14T06:48:30.820Z,4.25
2023-05-14T06:49:40.795Z,3.95
2023-05-14T06:50:50.782Z,3.97
2023-05-14T06:52:00.762Z,5.70
2023-05-14T06:53:10.648Z,4.82
2023-05-14T06:54:20.610Z,4.72
2023-05-14T06:55:30.522Z,4.03
2023-05-14T06:56:40.546Z,4.68
2023-05-14T06:57:50.459Z,3.97
2023-05-14T06:59:00.400Z,4.75
2023-05-14T07:00:10.553Z,3.33
2023-05-14T07:01:20.898Z,5.25
2023-05-14T07:02:30.855Z,3.45
2023-05-14T07:03:40.866Z,3.80
2023-05-14T07:04:51.781Z,4.38
2023-05-14T07:06:01.724Z,2.42
2023-05-14T07:07:11.653Z,3.25
2023-05-14T07:08:21.580Z,2.92
2023-05-14T07:09:31.611Z,6.38
2023-05-14T07:10:41.425Z,3.05
2023-05-14T07:11:52.401Z,5.80
2023-05-14T07:13:02.504Z,7.28
2023-05-14T07:14:13.618Z,5.18
2023-05-14T07:15:23.603Z,3.20
2023-05-14T07:16:33.539Z,3.65
2023-05-14T07:17:43.499Z,3.20
2023-05-14T07:18:53.544Z,3.30
2023-05-14T07:20:03.620Z,2.72
2023-05-14T07:21:13.759Z,2.75
2023-05-14T07:22:23.754Z,3.45
2023-05-14T07:23:33.843Z,2.78
2023-05-14T07:24:43.852Z,4.18
2023-05-14T07:25:53.781Z,2.60
2023-05-14T07:27:04.424Z,3.17
2023-05-14T07:28:14.656Z,3.28
2023-05-14T07:29:24.439Z,6.97
2023-05-14T07:30:34.364Z,2.38
2023-05-14T07:31:44.315Z,3.90
2023-05-14T07:32:54.499Z,2.95
2023-05-14T07:34:04.500Z,3.33
2023-05-14T07:35:14.387Z,3.30
2023-05-14T07:36:24.396Z,5.13
2023-05-14T07:37:34.401Z,2.95
2023-05-14T07:38:44.478Z,3.97
2023-05-14T07:39:54.543Z,4.10
2023-05-14T07:41:05.074Z,4.28
2023-05-14T07:42:24.710Z,2.28
2023-05-14T07:43:42.142Z,3.10
2023-05-14T07:44:51.974Z,3.88
2023-05-14T07:46:02.210Z,5.63
2023-05-14T07:47:12.656Z,2.83
2023-05-14T07:48:23.844Z,2.75
2023-05-14T07:49:33.887Z,2.70
2023-05-14T07:50:43.831Z,2.83
2023-05-14T07:51:53.755Z,1.77
2023-05-14T07:53:03.771Z,2.55
2023-05-14T07:54:13.771Z,3.33
2023-05-14T07:55:23.691Z,1.88
2023-05-14T07:56:33.604Z,1.85
2023-05-14T07:57:43.536Z,1.38
2023-05-14T07:58:53.596Z,2.58
2023-05-14T08:00:04.098Z,2.15
2023-05-14T08:01:15.841Z,2.38
2023-05-14T08:02:29.021Z,3.58
2023-05-14T08:03:39.233Z,2.40
2023-05-14T08:04:49.173Z,4.57
2023-05-14T08:05:59.050Z,4.38
2023-05-14T08:07:09.069Z,2.33
2023-05-14T08:08:19.036Z,4.43
2023-05-14T08:09:31.538Z,5.40
2023-05-14T08:10:41.495Z,3.40
2023-05-14T08:11:51.604Z,2.60
2023-05-14T08:13:01.830Z,3.05
2023-05-14T08:14:11.787Z,2.50
2023-05-14T08:15:21.778Z,2.13
2023-05-14T08:16:31.820Z,4.82
2023-05-14T08:17:41.762Z,2.00
2023-05-14T08:18:51.870Z,3.75
2023-05-14T08:20:01.852Z,2.05
2023-05-14T08:21:11.737Z,4.05
2023-05-14T08:22:21.699Z,2.35
2023-05-14T08:23:31.730Z,4.97
2023-05-14T08:24:41.785Z,2.30
2023-05-14T08:25:51.810Z,2.15
2023-05-14T08:27:01.792Z,6.20
2023-05-14T08:28:11.762Z,2.20
2023-05-14T08:29:21.941Z,3.85
2023-05-14T08:30:31.938Z,1.58
2023-05-14T08:31:42.143Z,2.88
2023-05-14T08:32:52.117Z,2.10
2023-05-14T08:34:02.292Z,1.15
2023-05-14T08:35:12.352Z,2.17
2023-05-14T08:36:22.302Z,2.08
2023-05-14T08:37:32.222Z,1.90
2023-05-14T08:38:42.196Z,2.45
2023-05-14T08:39:53.332Z,1.80
2023-05-14T08:41:05.397Z,3.20
2023-05-14T08:42:15.558Z,2.67
2023-05-14T08:43:30.622Z,2.50
2023-05-14T08:44:49.945Z,3.60
2023-05-14T08:46:01.275Z,1.10
2023-05-14T08:47:14.456Z,2.47
2023-05-14T08:48:26.719Z,1.05
2023-05-14T08:49:40.794Z,2.38
2023-05-14T08:50:59.900Z,1.17
2023-05-14T08:52:10.320Z,1.88
2023-05-14T08:53:21.423Z,1.77
2023-05-14T08:54:31.355Z,1.50
2023-05-14T08:55:41.821Z,2.35
2023-05-14T08:56:52.717Z,1.88
2023-05-14T08:58:03.200Z,3.20
2023-05-14T08:59:13.172Z,1.63
2023-05-14T09:00:23.347Z,2.33
2023-05-14T09:01:33.940Z,2.40
2023-05-14T09:02:47.755Z,2.15
2023-05-14T09:03:58.523Z,1.50
2023-05-14T09:05:10.404Z,3.40
2023-05-14T09:06:21.361Z,4.25
2023-05-14T09:07:31.839Z,3.05
2023-05-14T09:08:42.140Z,8.25
2023-05-14T09:09:53.303Z,1.42
2023-05-14T09:11:03.732Z,1.95
2023-05-14T09:12:13.903Z,1.95
2023-05-14T09:13:24.749Z,2.70
2023-05-14T09:14:36.925Z,1.65
2023-05-14T09:15:48.225Z,2.35
2023-05-14T09:16:58.563Z,1.63
2023-05-14T09:18:09.742Z,1.42
2023-05-14T09:19:20.696Z,2.53
2023-05-14T09:20:31.230Z,3.53
2023-05-14T09:21:41.582Z,2.08
2023-05-14T09:22:54.801Z,1.67
2023-05-14T09:24:04.901Z,2.58
2023-05-14T09:25:18.901Z,6.22
2023-05-14T09:26:32.606Z,10.02
2023-05-14T09:27:42.601Z,6.88
2023-05-14T09:28:57.280Z,7.22
2023-05-14T09:30:13.130Z,1.95
2023-05-14T09:31:23.621Z,2.00
2023-05-14T09:32:37.257Z,4.30
2023-05-14T09:33:53.320Z,1.33
2023-05-14T09:35:29.605Z,1.83
2023-05-14T09:36:39.602Z,2.92
2023-05-14T09:37:53.904Z,1.77
2023-05-14T09:39:04.506Z,1.73
2023-05-14T09:40:14.827Z,1.38
2023-05-14T09:41:24.844Z,3.55
2023-05-14T09:42:34.905Z,1.10
2023-05-14T09:43:45.210Z,2.45
2023-05-14T09:44:56.479Z,2.53
2023-05-14T09:46:07.696Z,3.25
2023-05-14T09:47:17.702Z,3.03
2023-05-14T09:48:28.271Z,5.70
2023-05-14T09:49:38.156Z,2.58
2023-05-14T09:50:48.199Z,1.70
2023-05-14T09:51:58.103Z,1.80
2023-05-14T09:53:08.024Z,1.40
2023-05-14T09:54:18.595Z,3.30
2023-05-14T09:55:29.100Z,2.90
2023-05-14T09:56:39.088Z,2.58
2023-05-14T09:57:49.241Z,1.88
2023-05-14T09:58:59.178Z,3.33
2023-05-14T10:00:09.665Z,1.20
2023-05-14T10:01:19.706Z,2.42
2023-05-14T10:02:34.880Z,2.40
2023-05-14T10:03:45.569Z,3.30
2023-05-14T10:04:58.335Z,2.35
2023-05-14T10:06:08.514Z,6.07
2023-05-14T10:07:26.864Z,2.05
2023-05-14T10:08:48.496Z,3.60
2023-05-14T10:10:13.563Z,3.30
2023-05-14T10:11:28.476Z,2.42
2023-05-14T10:12:46.302Z,1.90
2023-05-14T10:14:07.096Z,2.40
2023-05-14T10:15:33.384Z,1.80
2023-05-14T10:17:07.632Z,1.40
2023-05-14T10:18:22.890Z,1.10
2023-05-14T10:19:38.149Z,1.98
2023-05-14T10:21:05.601Z,3.38
2023-05-14T10:22:22.191Z,5.00
2023-05-14T10:23:33.517Z,2.42
2023-05-14T10:24:43.927Z,2.85
2023-05-14T10:25:54.399Z,3.15
2023-05-14T10:27:04.645Z,2.22
2023-05-14T10:28:14.767Z,3.42
2023-05-14T10:29:34.640Z,15.27
2023-05-14T10:30:49.522Z,2.58
2023-05-14T10:32:03.560Z,2.28
2023-05-14T10:33:14.282Z,2.42
2023-05-14T10:34:34.304Z,1.48
2023-05-14T10:35:51.177Z,6.40
2023-05-14T10:37:06.299Z,4.47
2023-05-14T10:38:26.051Z,2.97
2023-05-14T10:39:40.319Z,2.83
2023-05-14T10:41:01.827Z,2.67
2023-05-14T10:42:25.927Z,1.80
2023-05-14T10:43:37.323Z,2.22
2023-05-14T10:44:49.235Z,1.00
2023-05-14T10:46:04.007Z,1.83
2023-05-14T10:47:14.774Z,1.50
2023-05-14T10:48:25.448Z,3.70
2023-05-14T10:49:43.323Z,5.70
2023-05-14T10:50:58.270Z,2.03
2023-05-14T10:52:10.560Z,2.15
2023-05-14T10:53:29.925Z,3.63
2023-05-14T10:54:40.593Z,1.10
2023-05-14T10:55:54.449Z,1.25
2023-05-14T10:57:10.951Z,1.08
2023-05-14T10:58:24.386Z,0.93
2023-05-14T10:59:35.171Z,1.60
2023-05-14T11:00:48.892Z,2.22
2023-05-14T11:01:59.076Z,2.63
2023-05-14T11:03:30.518Z,2.22
2023-05-14T11:04:41.545Z,1.70
2023-05-14T11:05:54.452Z,2.60
2023-05-14T11:07:05.112Z,1.48
2023-05-14T11:08:15.463Z,3.08
2023-05-14T11:09:25.642Z,2.28
2023-05-14T11:10:36.972Z,1.85
2023-05-14T11:11:47.826Z,2.58
2023-05-14T11:12:57.826Z,2.38
2023-05-14T11:14:10.161Z,1.90
2023-05-14T11:15:22.321Z,1.30
2023-05-14T11:16:32.376Z,2.13
2023-05-14T11:17:43.396Z,2.90
2023-05-14T11:19:00.536Z,2.67
2023-05-14T11:20:11.197Z,2.45
2023-05-14T11:21:21.125Z,1.92
2023-05-14T11:22:31.179Z,1.10
2023-05-14T11:23:41.641Z,2.15
2023-05-14T11:24:53.084Z,0.80
2023-05-14T11:26:03.493Z,0.88
2023-05-14T11:27:14.568Z,1.42
2023-05-14T11:28:26.753Z,1.02
2023-05-14T11:29:38.178Z,0.75
2023-05-14T11:30:48.968Z,2.03
2023-05-14T11:31:58.928Z,0.90
2023-05-14T11:33:09.325Z,2.55
2023-05-14T11:34:19.395Z,0.90
2023-05-14T11:35:29.248Z,1.77
2023-05-14T11:36:39.189Z,2.03
2023-05-14T11:37:52.316Z,1.00
2023-05-14T11:39:02.221Z,0.75
2023-05-14T11:40:18.138Z,1.45
2023-05-14T11:41:28.381Z,1.20
2023-05-14T11:42:42.950Z,2.05
2023-05-14T11:43:52.900Z,0.93
2023-05-14T11:45:03.924Z,1.60
2023-05-14T11:46:22.616Z,2.60
2023-05-14T11:47:32.741Z,5.63
2023-05-14T11:48:42.788Z,2.53
2023-05-14T11:49:52.793Z,7.70
2023-05-14T11:51:04.536Z,12.55
2023-05-14T11:52:15.127Z,15.18
2023-05-14T11:53:26.105Z,10.57
2023-05-14T11:54:36.179Z,9.70
2023-05-14T11:55:47.203Z,4.15
2023-05-14T11:56:57.700Z,3.80
2023-05-14T11:58:17.911Z,2.70
2023-05-14T11:59:31.507Z,5.35
2023-05-14T12:00:44.039Z,4.07
2023-05-14T12:01:55.015Z,3.58
2023-05-14T12:03:09.808Z,2.85
2023-05-14T12:04:20.085Z,6.13
2023-05-14T12:05:30.172Z,3.13
2023-05-14T12:06:40.300Z,2.38
2023-05-14T12:07:51.057Z,2.72
2023-05-14T12:09:01.035Z,5.78
2023-05-14T12:10:11.879Z,2.38
2023-05-14T12:11:21.838Z,1.17
2023-05-14T12:12:34.818Z,2.42
2023-05-14T12:13:45.764Z,2.58
2023-05-14T12:14:55.716Z,1.10
2023-05-14T12:16:09.851Z,1.75
2023-05-14T12:17:22.305Z,1.80
2023-05-14T12:18:33.552Z,1.20
2023-05-14T12:19:44.061Z,1.42
2023-05-14T12:20:55.773Z,2.80
2023-05-14T12:22:05.858Z,2.90
2023-05-14T12:23:17.894Z,2.58
2023-05-14T12:24:29.197Z,2.80
2023-05-14T12:25:39.128Z,5.13
2023-05-14T12:26:50.012Z,4.57
2023-05-14T12:28:00.832Z,3.90
2023-05-14T12:29:17.545Z,4.55
2023-05-14T12:30:27.811Z,3.22
2023-05-14T12:31:37.791Z,2.55
2023-05-14T12:32:48.943Z,2.35
2023-05-14T12:33:59.116Z,3.33
2023-05-14T12:35:09.156Z,5.00
2023-05-14T12:36:22.131Z,4.18
2023-05-14T12:37:32.484Z,3.85
2023-05-14T12:38:43.581Z,5.32
2023-05-14T12:40:00.002Z,4.72
2023-05-14T12:41:10.329Z,3.75
2023-05-14T12:42:20.355Z,4.03
2023-05-14T12:43:30.362Z,3.85
2023-05-14T12:44:42.158Z,3.55
2023-05-14T12:45:52.272Z,4.35
2023-05-14T12:47:02.265Z,4.72
2023-05-14T12:48:12.343Z,7.47
2023-05-14T12:49:22.272Z,3.85
2023-05-14T12:50:32.384Z,5.38
2023-05-14T12:51:42.270Z,4.70
2023-05-14T12:52:52.245Z,4.75
2023-05-14T12:54:02.273Z,4.55
2023-05-14T12:55:12.233Z,5.07
2023-05-14T12:56:22.235Z,6.30
2023-05-14T12:57:32.140Z,8.80
2023-05-14T12:58:42.085Z,7.80
2023-05-14T12:59:53.034Z,12.32
2023-05-14T13:01:03.412Z,7.38
2023-05-14T13:02:14.862Z,9.25
2023-05-14T13:03:25.897Z,10.98
2023-05-14T13:04:36.991Z,6.78
2023-05-14T13:05:48.088Z,6.00
2023-05-14T13:06:58.137Z,8.50
2023-05-14T13:08:09.146Z,5.70
2023-05-14T13:09:21.932Z,5.70
2023-05-14T13:10:31.418Z,9.45
2023-05-14T13:11:40.916Z,11.60
2023-05-14T13:12:50.420Z,11.00
2023-05-14T13:14:01.178Z,9.70
2023-05-14T13:15:11.178Z,15.85
2023-05-14T13:16:21.128Z,16.70
2023-05-14T13:17:32.207Z,15.23
2023-05-14T13:18:41.987Z,19.33
2023-05-14T13:19:51.969Z,16.48
2023-05-14T13:21:01.693Z,14.10
2023-05-14T13:22:10.262Z,18.90
2023-05-14T13:23:19.812Z,20.30
2023-05-14T13:24:29.006Z,20.30
2023-05-14T13:25:38.138Z,19.48
2023-05-14T13:26:47.731Z,17.05
2023-05-14T13:27:57.345Z,18.13
2023-05-14T13:29:06.858Z,16.30
2023-05-14T13:30:17.436Z,17.80
2023-05-14T13:31:27.570Z,23.25
2023-05-14T13:32:37.055Z,20.63
2023-05-14T13:33:46.971Z,21.35
2023-05-14T13:34:56.536Z,23.45
2023-05-14T13:36:06.369Z,19.45
2023-05-14T13:37:16.094Z,22.85
2023-05-14T13:38:25.619Z,21.40
2023-05-14T13:39:35.866Z,20.25
2023-05-14T13:40:45.714Z,22.85
2023-05-14T13:41:55.283Z,21.80
2023-05-14T13:43:05.262Z,17.60
2023-05-14T13:44:14.734Z,12.75
2023-05-14T13:45:25.569Z,15.82
2023-05-14T13:46:35.422Z,16.65
2023-05-14T13:47:45.482Z,16.88
2023-05-14T13:48:56.052Z,12.82
2023-05-14T13:50:07.148Z,16.48
2023-05-14T13:51:17.379Z,11.10
2023-05-14T13:52:27.035Z,14.55
2023-05-14T13:53:36.601Z,13.55
2023-05-14T13:54:48.482Z,10.65
2023-05-14T13:55:58.160Z,9.85
2023-05-14T13:57:07.910Z,11.32
2023-05-14T13:58:18.164Z,10.48
2023-05-14T13:59:30.061Z,9.88
2023-05-14T14:00:44.515Z,11.82
2023-05-14T14:01:55.206Z,11.27
2023-05-14T14:03:06.687Z,12.93
2023-05-14T14:04:16.389Z,12.48
2023-05-14T14:05:27.525Z,12.57
2023-05-14T14:06:37.393Z,10.20
2023-05-14T14:07:47.670Z,8.68
2023-05-14T14:09:03.065Z,9.20
2023-05-14T14:10:13.017Z,8.25
2023-05-14T14:11:23.505Z,8.93
2023-05-14T14:12:33.130Z,8.43
2023-05-14T14:13:45.113Z,7.47
2023-05-14T14:14:56.662Z,8.75
2023-05-14T14:16:06.624Z,7.40
2023-05-14T14:17:16.182Z,7.93
2023-05-14T14:18:25.764Z,9.07
2023-05-14T14:19:35.693Z,7.22
2023-05-14T14:20:45.242Z,6.75
2023-05-14T14:21:54.807Z,9.00
2023-05-14T14:23:05.229Z,8.85
2023-05-14T14:24:14.772Z,6.50
2023-05-14T14:25:24.676Z,7.70
2023-05-14T14:26:34.445Z,6.38
2023-05-14T14:27:44.360Z,7.28
2023-05-14T14:28:54.016Z,6.60
2023-05-14T14:30:04.685Z,7.00
2023-05-14T14:31:14.525Z,8.82
2023-05-14T14:32:24.014Z,5.78
2023-05-14T14:33:34.116Z,8.38
2023-05-14T14:34:44.093Z,6.40
2023-05-14T14:35:53.631Z,7.13
2023-05-14T14:37:04.190Z,9.88
2023-05-14T14:38:13.810Z,6.65
2023-05-14T14:39:23.750Z,6.43
2023-05-14T14:40:33.881Z,5.82
2023-05-14T14:41:43.757Z,5.45
2023-05-14T14:42:57.972Z,4.13
2023-05-14T14:44:07.855Z,5.70
2023-05-14T14:45:17.482Z,5.10
2023-05-14T14:46:27.512Z,5.93
2023-05-14T14:47:37.024Z,5.15
2023-05-14T14:48:51.746Z,5.32
2023-05-14T14:51:29.579Z,5.10
2023-05-14T14:52:40.079Z,5.45
2023-05-14T14:53:50.060Z,7.90
2023-05-14T14:54:59.565Z,7.65
2023-05-14T14:56:09.113Z,7.18
2023-05-14T14:57:18.644Z,6.80
2023-05-14T14:58:28.473Z,7.05
2023-05-14T14:59:38.215Z,6.40
2023-05-14T15:00:48.923Z,5.53
2023-05-14T15:01:58.722Z,5.60
2023-05-14T15:03:08.554Z,5.95
2023-05-14T15:04:18.973Z,5.45
2023-05-14T15:05:28.822Z,6.35
2023-05-14T15:06:38.892Z,9.60
2023-05-14T15:07:48.397Z,7.35
2023-05-14T15:08:57.912Z,5.88
2023-05-14T15:10:07.762Z,5.30
2023-05-14T15:11:17.445Z,8.10
2023-05-14T15:12:26.971Z,10.05
2023-05-14T15:13:36.567Z,8.13
2023-05-14T15:14:46.530Z,5.53
2023-05-14T15:15:56.090Z,6.72
2023-05-14T15:17:06.328Z,7.53
2023-05-14T15:18:16.056Z,5.50
2023-05-14T15:19:25.628Z,4.05
2023-05-14T15:20:35.164Z,6.85
2023-05-14T15:21:44.769Z,6.72
2023-05-14T15:22:55.143Z,6.10
2023-05-14T15:24:05.076Z,5.32
2023-05-14T15:25:14.819Z,4.63
2023-05-14T15:26:24.850Z,5.35
2023-05-14T15:27:34.500Z,7.25
2023-05-14T15:28:44.393Z,7.88
2023-05-14T15:29:53.916Z,8.02
2023-05-14T15:31:04.018Z,7.05
2023-05-14T15:32:13.990Z,5.93
2023-05-14T15:33:23.966Z,9.50
2023-05-14T15:34:34.115Z,6.97
2023-05-14T15:35:44.950Z,4.55
2023-05-14T15:36:54.524Z,5.03
2023-05-14T15:38:04.229Z,6.85
2023-05-14T15:39:14.100Z,6.57
2023-05-14T15:40:23.837Z,5.05
2023-05-14T15:41:33.677Z,5.75
2023-05-14T15:42:43.836Z,5.00
2023-05-14T15:44:01.524Z,8.18
2023-05-14T15:45:13.099Z,5.38
2023-05-14T15:46:22.389Z,5.53